Roy Baker — WDC2698 — position and weather

sailwx.info

Track history (hours):
 
Tides and Currents Weather Stations Pressure Air Temp Water Temp Dewpoint Dewpoint Depression Visibility Wind Speed Wind Dir Waves Ship Positions

Roy Baker

Owner: Kirby Inland Marine LP, Houston, TX. More information available from US FCC via Universal Licensing System and Coast Guard Vessel Documentation Center.

Last reported at 2016-Jun-20 20:15 UTC. Time now 2016-Jun-27 04:13 UTC.
Position N 29°60' W 089°59'.

Length 24 m; draft 2.3 m.

Type: Towing. MMSI: 366996540.

Date/timePositionNaut miles runAvg speedWind from/ knotsBaromVisibWave heightAir tempDewpointWater temp
2016-Jun-20 20:15N 29°60' W 089°59'0 0.0
2016-Jun-20 19:34N 29°60' W 089°59'0 0.0
2016-Jun-20 18:34N 29°60' W 089°59'0 0.0
2016-Jun-20 17:34N 29°60' W 089°59'0 0.0
2016-Jun-20 16:34N 29°60' W 089°59'0 0.0
2016-Jun-20 15:33N 29°60' W 089°59'0 0.0
2016-Jun-20 14:34N 29°60' W 089°59'0 0.0
2016-Jun-20 13:33N 29°60' W 089°59'0 0.0
2016-Jun-20 12:33N 29°60' W 089°59'0 0.0
2016-Jun-20 11:33N 29°60' W 089°59'0 0.0
2016-Jun-20 10:34N 29°60' W 089°59'0 0.0
2016-Jun-20 09:34N 29°60' W 089°59'0 0.0
2016-Jun-20 08:34N 29°60' W 089°59'0 0.0
2016-Jun-20 07:33N 29°60' W 089°59'0 0.0
2016-Jun-20 06:34N 29°60' W 089°59'0 0.0
2016-Jun-20 05:33N 29°60' W 089°59'0 0.0
2016-Jun-20 04:34N 29°60' W 089°59'0 0.0
2016-Jun-20 03:33N 29°60' W 089°59'0 0.0
2016-Jun-20 02:33N 29°60' W 089°59'0 0.0
2016-Jun-20 01:33N 29°60' W 089°59'0 0.1
2016-Jun-20 00:32N 29°60' W 089°59'3 3.0
2016-Jun-19 23:33N 29°58' W 090°02'3 2.9
2016-Jun-19 22:34N 29°56' W 089°59'0 0.0
2016-Jun-19 21:33N 29°56' W 089°59'0 0.0
2016-Jun-19 20:33N 29°56' W 089°59'0 0.0
2016-Jun-19 19:33N 29°56' W 089°59'1 1.2
2016-Jun-19 18:33N 29°55' W 089°58'0 0.4
2016-Jun-19 17:33N 29°55' W 089°59'1 1.1
2016-Jun-19 16:34N 29°54' W 089°60'0 0.0
2016-Jun-19 15:33N 29°54' W 089°60'2 2.2
2016-Jun-19 14:33N 29°52' W 090°01'5 4.8
2016-Jun-19 13:33N 29°48' W 090°04'29 4.2
2016-Jun-19 06:33N 29°34' W 090°33'5 5.3
2016-Jun-19 05:33N 29°36' W 090°39'3 3.4
2016-Jun-19 04:34N 29°35' W 090°43'5 5.3
2016-Jun-19 03:33N 29°32' W 090°48'53 2.8
2016-Jun-18 08:18N 29°46' W 091°47'3 4.1
2016-Jun-18 07:34N 29°49' W 091°49'5 4.6
2016-Jun-18 06:33N 29°51' W 091°54'10 5.2
2016-Jun-18 04:33N 29°48' W 092°06'5 5.2
2016-Jun-18 03:33N 29°47' W 092°11'6 5.8
2016-Jun-18 02:29N 29°50' W 092°18'5 5.5
2016-Jun-18 01:31N 29°53' W 092°23'37 5.3
2016-Jun-17 18:34N 29°56' W 093°05'5 4.8
2016-Jun-17 17:33N 29°57' W 093°11'5 5.1
2016-Jun-17 16:33N 30°02' W 093°14'5 4.9
2016-Jun-17 15:33N 30°05' W 093°18'1 1.4
2016-Jun-17 14:33N 30°06' W 093°19'2 1.5
2016-Jun-17 13:34N 30°05' W 093°20'4 3.7
2016-Jun-17 12:29N 30°04' W 093°24'5 5.9
2016-Jun-17 11:33N 30°04' W 093°31'6 6.0
2016-Jun-17 10:31N 30°04' W 093°38'5 4.9
2016-Jun-17 09:31N 30°03' W 093°44'6 6.0
2016-Jun-17 08:33N 29°59' W 093°49'6 1.3
2016-Jun-17 03:33N 29°59' W 093°56'0 0.0
2016-Jun-17 01:25N 29°59' W 093°56'0 0.0
2016-Jun-17 00:25N 29°59' W 093°56'0 0.0
2016-Jun-16 12:13N 29°60' W 093°56'0 0.0
2016-Jun-16 10:30N 29°60' W 093°56'  
2016-Jun-13 02:21N 29°58' W 093°51'0 0.0
2016-Jun-13 01:32N 29°58' W 093°51'0 0.1
2016-Jun-13 00:23N 29°58' W 093°51'0 0.0
2016-Jun-12 23:33N 29°58' W 093°51'0 0.0
2016-Jun-12 12:25N 29°58' W 093°51'6 0.2
2016-Jun-11 09:26N 30°02' W 093°44'5 6.2
2016-Jun-11 08:33N 30°04' W 093°38'6 5.9
2016-Jun-11 07:33N 30°04' W 093°32'6 5.8
2016-Jun-11 06:33N 30°04' W 093°25'5 4.9
2016-Jun-11 05:34N 30°05' W 093°20'5 4.5
2016-Jun-11 04:33N 30°02' W 093°16'7 6.7
2016-Jun-11 03:33N 29°57' W 093°11'6 6.1
2016-Jun-11 02:33N 29°56' W 093°04'32 6.2
2016-Jun-10 21:25N 29°54' W 092°27'5 6.1
2016-Jun-10 20:33N 29°51' W 092°22'  
Track history (hours):
 
Tides and Currents Weather Stations Pressure Air Temp Water Temp Dewpoint Dewpoint Depression Visibility Wind Speed Wind Dir Waves Ship Positions

Roy Baker

Owner: Kirby Inland Marine LP, Houston, TX. More information available from US FCC via Universal Licensing System and Coast Guard Vessel Documentation Center.

Last reported at 2016-Jun-20 20:15 UTC. Time now 2016-Jun-27 04:13 UTC.
Position N 29°60' W 089°59'.

Length 24 m; draft 2.3 m.

Type: Towing. MMSI: 366996540.

Date/timePositionNaut miles runAvg speedWind from/ knotsBaromVisibWave heightAir tempDewpointWater temp
2016-Jun-20 20:15N 29°60' W 089°59'0 0.0
2016-Jun-20 19:34N 29°60' W 089°59'0 0.0
2016-Jun-20 18:34N 29°60' W 089°59'0 0.0
2016-Jun-20 17:34N 29°60' W 089°59'0 0.0
2016-Jun-20 16:34N 29°60' W 089°59'0 0.0
2016-Jun-20 15:33N 29°60' W 089°59'0 0.0
2016-Jun-20 14:34N 29°60' W 089°59'0 0.0
2016-Jun-20 13:33N 29°60' W 089°59'0 0.0
2016-Jun-20 12:33N 29°60' W 089°59'0 0.0
2016-Jun-20 11:33N 29°60' W 089°59'0 0.0
2016-Jun-20 10:34N 29°60' W 089°59'0 0.0
2016-Jun-20 09:34N 29°60' W 089°59'0 0.0
2016-Jun-20 08:34N 29°60' W 089°59'0 0.0
2016-Jun-20 07:33N 29°60' W 089°59'0 0.0
2016-Jun-20 06:34N 29°60' W 089°59'0 0.0
2016-Jun-20 05:33N 29°60' W 089°59'0 0.0
2016-Jun-20 04:34N 29°60' W 089°59'0 0.0
2016-Jun-20 03:33N 29°60' W 089°59'0 0.0
2016-Jun-20 02:33N 29°60' W 089°59'0 0.0
2016-Jun-20 01:33N 29°60' W 089°59'0 0.1
2016-Jun-20 00:32N 29°60' W 089°59'3 3.0
2016-Jun-19 23:33N 29°58' W 090°02'3 2.9
2016-Jun-19 22:34N 29°56' W 089°59'0 0.0
2016-Jun-19 21:33N 29°56' W 089°59'0 0.0
2016-Jun-19 20:33N 29°56' W 089°59'0 0.0
2016-Jun-19 19:33N 29°56' W 089°59'1 1.2
2016-Jun-19 18:33N 29°55' W 089°58'0 0.4
2016-Jun-19 17:33N 29°55' W 089°59'1 1.1
2016-Jun-19 16:34N 29°54' W 089°60'0 0.0
2016-Jun-19 15:33N 29°54' W 089°60'2 2.2
2016-Jun-19 14:33N 29°52' W 090°01'5 4.8
2016-Jun-19 13:33N 29°48' W 090°04'29 4.2
2016-Jun-19 06:33N 29°34' W 090°33'5 5.3
2016-Jun-19 05:33N 29°36' W 090°39'3 3.4
2016-Jun-19 04:34N 29°35' W 090°43'5 5.3
2016-Jun-19 03:33N 29°32' W 090°48'53 2.8
2016-Jun-18 08:18N 29°46' W 091°47'3 4.1
2016-Jun-18 07:34N 29°49' W 091°49'5 4.6
2016-Jun-18 06:33N 29°51' W 091°54'10 5.2
2016-Jun-18 04:33N 29°48' W 092°06'5 5.2
2016-Jun-18 03:33N 29°47' W 092°11'6 5.8
2016-Jun-18 02:29N 29°50' W 092°18'5 5.5
2016-Jun-18 01:31N 29°53' W 092°23'37 5.3
2016-Jun-17 18:34N 29°56' W 093°05'5 4.8
2016-Jun-17 17:33N 29°57' W 093°11'5 5.1
2016-Jun-17 16:33N 30°02' W 093°14'5 4.9
2016-Jun-17 15:33N 30°05' W 093°18'1 1.4
2016-Jun-17 14:33N 30°06' W 093°19'2 1.5
2016-Jun-17 13:34N 30°05' W 093°20'4 3.7
2016-Jun-17 12:29N 30°04' W 093°24'5 5.9
2016-Jun-17 11:33N 30°04' W 093°31'6 6.0
2016-Jun-17 10:31N 30°04' W 093°38'5 4.9
2016-Jun-17 09:31N 30°03' W 093°44'6 6.0
2016-Jun-17 08:33N 29°59' W 093°49'6 1.3
2016-Jun-17 03:33N 29°59' W 093°56'0 0.0
2016-Jun-17 01:25N 29°59' W 093°56'0 0.0
2016-Jun-17 00:25N 29°59' W 093°56'0 0.0
2016-Jun-16 12:13N 29°60' W 093°56'0 0.0
2016-Jun-16 10:30N 29°60' W 093°56'  
2016-Jun-13 02:21N 29°58' W 093°51'0 0.0
2016-Jun-13 01:32N 29°58' W 093°51'0 0.1
2016-Jun-13 00:23N 29°58' W 093°51'0 0.0
2016-Jun-12 23:33N 29°58' W 093°51'0 0.0
2016-Jun-12 12:25N 29°58' W 093°51'6 0.2
2016-Jun-11 09:26N 30°02' W 093°44'5 6.2
2016-Jun-11 08:33N 30°04' W 093°38'6 5.9
2016-Jun-11 07:33N 30°04' W 093°32'6 5.8
2016-Jun-11 06:33N 30°04' W 093°25'5 4.9
2016-Jun-11 05:34N 30°05' W 093°20'5 4.5
2016-Jun-11 04:33N 30°02' W 093°16'7 6.7
2016-Jun-11 03:33N 29°57' W 093°11'6 6.1
2016-Jun-11 02:33N 29°56' W 093°04'32 6.2
2016-Jun-10 21:25N 29°54' W 092°27'5 6.1
2016-Jun-10 20:33N 29°51' W 092°22'  

Dump ship's entire track history